• Join FlightAware (Why Join?)
  • Login
  • US Flag 
11:09AM EDT


 

Airport Tracker/Info


-or-


 

Live Flight TrackerFlight Track Log ✈ GJS3706 ✈ 09-Sep-2013 ✈ KORD - KBTV

Flight Track Log - Related Links

Times and Time Zones

All times are in EDT time to prevent confusion due to time zone crossing. See the GJS3706 flight status page for this flight to view local times or setup timezone preferences in your user account.

Time Position Orientation Groundspeed Altitude Reporting Facility
EDT Latitude Longitude Course Direction KTS MPH feet Rate Location/Type
09:43AM 41.9667 -87.8667 49° Northeast 170 196 1,500  Level Chicago TRACON
09:44AM 41.9667 -87.7833 90° East 239 275 3,500 1,680 Climbing Chicago TRACON
09:45AM 41.9667 -87.6833 90° East 286 329 4,900 1,800 Climbing Chicago TRACON
09:46AM 41.9833 -87.5833 77° East 297 342 7,200 2,340 Climbing Chicago TRACON
09:47AM 42.0517 -87.6242 336° Northwest 277 319 10,100 2,220 Climbing Chicago Center
09:49AM 42.1684 -87.1221 49° Northeast  Level Estimated
09:49AM 42.0936 -87.7042 305° West 265 305 12,200  Level Chicago Center
09:50AM 42.1850 -87.7164 354° North 290 334 14,700 2,160 Climbing Chicago Center
09:51AM 42.2661 -87.7136 North 291 335 16,800 1,740 Climbing Chicago Center
09:52AM 42.3525 -87.7008 North 308 354 18,400 1,200 Climbing Chicago Center
09:53AM 42.4461 -87.6875 North 331 381 19,400 960 Climbing Chicago Center
09:54AM 42.5492 -87.6739 North 362 417 20,400 1,020 Climbing Chicago Center
09:55AM 42.6769 -87.6564 North 387 445 21,600 1,020 Climbing Chicago Center
09:56AM 42.7917 -87.6397 North 405 466 22,600 720 Climbing Chicago Center
09:57AM 42.8856 -87.5394 38° Northeast 437 503 23,200 600 Climbing Chicago Center
09:58AM 42.9689 -87.4067 49° Northeast 455 524 23,900 660 Climbing Chicago Center
09:59AM 43.0553 -87.2744 48° Northeast 464 534 24,600 660 Climbing Chicago Center
10:00AM 43.1408 -87.1381 49° Northeast 471 542 25,300 720 Climbing Chicago Center
10:01AM 43.2456 -86.9719 49° Northeast 479 551 26,200 780 Climbing Chicago Center
10:02AM 43.3331 -86.8317 49° Northeast 483 556 27,000 840 Climbing Chicago Center
10:03AM 43.4194 -86.6928 49° Northeast 478 550 28,000 960 Climbing Chicago Center
10:04AM 43.5053 -86.5544 49° Northeast 476 548 29,000 960 Climbing Chicago Center
10:05AM 43.5925 -86.4181 49° Northeast 474 545 30,100 1,080 Climbing Chicago Center
10:06AM 43.6772 -86.2800 50° Northeast 470 541 31,100 1,020 Climbing Minneapolis Center
10:07AM 43.7631 -86.1419 49° Northeast 471 542 32,100 960 Climbing Minneapolis Center
10:08AM 43.8461 -86.0044 50° Northeast 469 540 33,100 960 Climbing Minneapolis Center
10:09AM 43.9269 -85.8681 51° Northeast 464 534 34,100 960 Climbing Minneapolis Center
10:10AM 44.0056 -85.7328 51° Northeast 458 527 35,100 900 Climbing Minneapolis Center
10:11AM 44.0817 -85.6014 51° Northeast 449 517 36,000 900 Climbing Minneapolis Center
10:12AM 44.1394 -85.4139 67° East 447 514 37,000 480 Climbing Minneapolis Center
10:13AM 44.1547 -85.2381 83° East 460 529 37,000  Level Minneapolis Center
10:14AM 44.1678 -85.0561 84° East 471 542 37,000  Level Minneapolis Center
10:15AM 44.1822 -84.8697 84° East 481 554 37,000  Level Minneapolis Center
10:16AM 44.1958 -84.6806 84° East 490 564 37,000  Level Minneapolis Center
10:17AM 44.2078 -84.4903 85° East 495 570 37,000  Level Minneapolis Center
10:18AM 44.2233 -84.2603 85° East 499 574 37,000  Level Minneapolis Center
10:19AM 44.2347 -84.0697 85° East 497 572 37,000  Level Minneapolis Center
10:20AM 44.2469 -83.8772 85° East 499 574 37,000  Level Minneapolis Center
10:21AM 44.2617 -83.6864 84° East 496 571 37,000  Level Minneapolis Center
10:22AM 44.2747 -83.4922 85° East 501 577 37,000  Level Minneapolis Center
10:24AM 44.2847 -83.2992 86° East 502 578 37,000  Level Minneapolis Center
10:25AM 44.2992 -83.0639 85° East 507 583 37,000  Level Minneapolis Center
10:26AM 44.3097 -82.8675 86° East 509 586 37,000  Level Minneapolis Center
10:26AM 44.3000 -82.7500 97° East 510 587 37,000  Level Toronto Center
10:27AM 44.3167 -82.5500 83° East 510 587 37,000  Level Toronto Center
10:28AM 44.3167 -82.3667 90° East 510 587 37,000  Level Toronto Center
10:29AM 44.3167 -82.1500 90° East 510 587 37,000  Level Toronto Center
10:30AM 44.3333 -81.9667 83° East 510 587 37,000  Level Toronto Center
10:31AM 44.3500 -81.7500 84° East 510 587 37,000  Level Toronto Center
10:32AM 44.3500 -81.5667 90° East 510 587 37,000  Level Toronto Center
10:33AM 44.3500 -81.3500 90° East 510 587 37,000  Level Toronto Center
10:34AM 44.3667 -81.1667 83° East 520 598 37,000  Level Toronto Center
10:35AM 44.3667 -80.9667 90° East 510 587 37,000  Level Toronto Center
10:36AM 44.3833 -80.7833 83° East 510 587 37,000  Level Toronto Center
10:37AM 44.3833 -80.5667 90° East 510 587 37,000  Level Toronto Center
10:38AM 44.4000 -80.3500 84° East 510 587 37,000  Level Toronto Center
10:39AM 44.4000 -80.1667 90° East 510 587 37,000  Level Toronto Center
10:40AM 44.4000 -79.9667 90° East 510 587 37,000  Level Toronto Center
10:41AM 44.4000 -79.7667 90° East 510 587 37,000  Level Toronto Center
10:42AM 44.3833 -79.5667 97° East 520 598 37,000  Level Toronto Center
10:43AM 44.3667 -79.3833 97° East 520 598 37,000  Level Toronto Center
10:44AM 44.3833 -79.1667 84° East 510 587 37,000  Level Toronto Center
10:45AM 44.3833 -78.9833 90° East 510 587 37,000  Level Toronto Center
10:46AM 44.4000 -78.7667 84° East 510 587 37,000  Level Toronto Center
10:47AM 44.4000 -78.5833 90° East 510 587 37,000  Level Toronto Center
10:48AM 44.4000 -78.3667 90° East 510 587 37,000  Level Toronto Center
10:49AM 44.4000 -78.1833 90° East 510 587 37,000  Level Toronto Center
10:50AM 44.4167 -77.9833 83° East 510 587 37,000  Level Toronto Center
10:51AM 44.4167 -77.7833 90° East 510 587 37,000  Level Toronto Center
10:52AM 44.4333 -77.5833 83° East 510 587 37,000  Level Toronto Center
10:53AM 44.4333 -77.3833 90° East 510 587 37,000  Level Toronto Center
10:54AM 44.4333 -77.1833 90° East 510 587 37,000  Level Toronto Center
10:55AM 44.4333 -77.0000 90° East 510 587 37,000  Level Toronto Center
10:56AM 44.4500 -76.7833 84° East 510 587 37,000  Level Toronto Center
10:57AM 44.4333 -76.6000 97° East 510 587 37,000  Level Toronto Center
10:58AM 44.4500 -76.3833 84° East 510 587 37,000  Level Toronto Center
10:59AM 44.4667 -76.2000 83° East 510 587 37,000  Level Toronto Center
11:00AM 44.4500 -76.0167 97° East 510 587 37,000 -600 Level Toronto Center
11:01AM 44.4667 -75.8000 84° East 510 587 35,900 -1,560 Descending Toronto Center
11:02AM 44.4667 -75.6167 90° East 500 575 33,900 -2,040 Descending Toronto Center
11:03AM 44.4667 -75.4000 90° East 500 575 31,900 -2,160 Descending Toronto Center
11:04AM 44.4667 -75.2167 90° East 490 564 29,600 -2,460 Descending Toronto Center
11:05AM 44.4667 -75.0333 90° East 490 564 27,000 -2,520 Descending Toronto Center
11:06AM 44.4667 -74.8500 90° East 480 552 24,600 -2,520 Descending Toronto Center
11:07AM 44.4667 -74.6500 90° East 460 529 22,000 -2,340 Descending Toronto Center
11:08AM 44.4667 -74.4833 90° East 440 506 20,000 -2,040 Descending Toronto Center
11:09AM 44.4667 -74.3000 90° East 450 518 18,000 -1,560 Descending Toronto Center
11:10AM 44.4667 -74.1333 90° East 440 506 16,900 -1,560 Descending Toronto Center
11:12AM 44.4803 -73.9764 83° East 419 482 14,200 -1,920 Descending Boston Center
11:13AM 44.4864 -73.8308 87° East 386 444 12,200 -1,800 Descending Boston Center
11:14AM 44.5044 -73.6917 80° East 351 404 10,700 -2,040 Descending Boston Center
11:15AM 44.5244 -73.5786 76° East 314 361 8,300 -2,520 Descending Boston Center
11:16AM 44.5400 -73.4681 79° East 294 338 5,700 -2,340 Descending Boston Center
11:17AM 44.5533 -73.3694 79° East 294 338 3,700 -1,740 Descending Boston Center
11:18AM 44.5458 -73.2703 96° East 264 304 2,200 -1,200 Descending Boston Center
11:19AM 44.5169 -73.2261 133° Southeast 178 205 1,300 -780 Descending Boston Center
11:20AM 44.4922 -73.1881 132° Southeast 139 160 700 -540 Descending Boston Center
11:21AM 44.4717 -73.1528 129° Southeast 122 140 300 -240 Descending Boston Center
11:22AM 44.4694 -73.1558 224° Southwest 46 53 300  Level Boston Center
11:23AM 44.4550 -73.1408 143° Southeast 39 45 300 5,280 Level Boston Center
11:24AM 44.4447 -73.1350 158° South 39 45 11,000 5,340 Climbing Boston Center
11:25AM 44.4342 -73.1261 149° Southeast 39 45 11,000  Level Boston Center
11:26AM 44.4239 -73.1203 158° South 39 45 11,000  Level Boston Center